sensor_id;sensor_type;location;lat;lon;timestamp;P1;durP1;ratioP1;P2;durP2;ratioP2
5195;SDS011;2617;51.006;12.436;2023-11-18T00:04:44;6.53;;;3.53;;
5195;SDS011;2617;51.006;12.436;2023-11-18T00:09:45;4.17;;;2.50;;
5195;SDS011;2617;51.006;12.436;2023-11-18T00:14:47;3.03;;;2.73;;
5195;SDS011;2617;51.006;12.436;2023-11-18T00:19:50;2.95;;;2.50;;
5195;SDS011;2617;51.006;12.436;2023-11-18T00:24:51;2.37;;;2.17;;
5195;SDS011;2617;51.006;12.436;2023-11-18T00:29:54;2.50;;;2.30;;
5195;SDS011;2617;51.006;12.436;2023-11-18T00:34:56;2.10;;;1.90;;
5195;SDS011;2617;51.006;12.436;2023-11-18T00:39:57;3.63;;;2.60;;
5195;SDS011;2617;51.006;12.436;2023-11-18T00:44:59;2.83;;;2.60;;
5195;SDS011;2617;51.006;12.436;2023-11-18T00:50:01;2.60;;;2.40;;
5195;SDS011;2617;51.006;12.436;2023-11-18T00:55:02;2.77;;;2.10;;
5195;SDS011;2617;51.006;12.436;2023-11-18T01:00:06;3.10;;;2.40;;
5195;SDS011;2617;51.006;12.436;2023-11-18T01:05:09;5.83;;;2.83;;
5195;SDS011;2617;51.006;12.436;2023-11-18T01:10:11;3.13;;;2.90;;
5195;SDS011;2617;51.006;12.436;2023-11-18T01:15:13;5.45;;;3.30;;
5195;SDS011;2617;51.006;12.436;2023-11-18T01:20:16;4.83;;;3.50;;
5195;SDS011;2617;51.006;12.436;2023-11-18T01:25:17;5.60;;;3.33;;
5195;SDS011;2617;51.006;12.436;2023-11-18T01:30:19;5.62;;;3.40;;
5195;SDS011;2617;51.006;12.436;2023-11-18T01:35:21;3.73;;;3.20;;
5195;SDS011;2617;51.006;12.436;2023-11-18T01:40:23;2.67;;;2.47;;
5195;SDS011;2617;51.006;12.436;2023-11-18T01:45:24;3.80;;;3.20;;
5195;SDS011;2617;51.006;12.436;2023-11-18T01:50:26;3.40;;;3.00;;
5195;SDS011;2617;51.006;12.436;2023-11-18T01:55:28;5.80;;;3.37;;
5195;SDS011;2617;51.006;12.436;2023-11-18T02:00:30;6.30;;;3.03;;
5195;SDS011;2617;51.006;12.436;2023-11-18T02:05:32;3.20;;;2.83;;
5195;SDS011;2617;51.006;12.436;2023-11-18T02:10:35;4.17;;;3.87;;
5195;SDS011;2617;51.006;12.436;2023-11-18T02:15:36;3.30;;;3.03;;
5195;SDS011;2617;51.006;12.436;2023-11-18T02:20:38;6.10;;;3.70;;
5195;SDS011;2617;51.006;12.436;2023-11-18T02:25:44;5.60;;;2.70;;
5195;SDS011;2617;51.006;12.436;2023-11-18T02:30:45;7.70;;;3.30;;
5195;SDS011;2617;51.006;12.436;2023-11-18T02:35:52;3.42;;;3.12;;
5195;SDS011;2617;51.006;12.436;2023-11-18T02:40:53;4.07;;;3.67;;
5195;SDS011;2617;51.006;12.436;2023-11-18T02:45:55;5.30;;;3.47;;
5195;SDS011;2617;51.006;12.436;2023-11-18T02:50:56;4.30;;;3.83;;
5195;SDS011;2617;51.006;12.436;2023-11-18T02:55:58;4.27;;;3.50;;
5195;SDS011;2617;51.006;12.436;2023-11-18T03:01:00;6.23;;;4.33;;
5195;SDS011;2617;51.006;12.436;2023-11-18T03:06:01;4.80;;;3.80;;
5195;SDS011;2617;51.006;12.436;2023-11-18T03:11:03;5.43;;;4.20;;
5195;SDS011;2617;51.006;12.436;2023-11-18T03:16:06;7.53;;;4.83;;
5195;SDS011;2617;51.006;12.436;2023-11-18T03:21:12;6.28;;;4.97;;
5195;SDS011;2617;51.006;12.436;2023-11-18T03:26:13;7.30;;;4.87;;
5195;SDS011;2617;51.006;12.436;2023-11-18T03:31:16;7.97;;;5.30;;
5195;SDS011;2617;51.006;12.436;2023-11-18T03:36:18;5.57;;;4.87;;
5195;SDS011;2617;51.006;12.436;2023-11-18T03:41:20;6.82;;;6.00;;
5195;SDS011;2617;51.006;12.436;2023-11-18T03:46:22;7.17;;;5.40;;
5195;SDS011;2617;51.006;12.436;2023-11-18T03:51:24;10.47;;;5.53;;
5195;SDS011;2617;51.006;12.436;2023-11-18T03:56:26;8.87;;;6.27;;
5195;SDS011;2617;51.006;12.436;2023-11-18T04:01:28;7.50;;;5.03;;
5195;SDS011;2617;51.006;12.436;2023-11-18T04:06:30;7.93;;;5.50;;
5195;SDS011;2617;51.006;12.436;2023-11-18T04:11:32;7.90;;;5.87;;
5195;SDS011;2617;51.006;12.436;2023-11-18T04:16:34;13.73;;;6.33;;
5195;SDS011;2617;51.006;12.436;2023-11-18T04:21:35;11.47;;;6.00;;
5195;SDS011;2617;51.006;12.436;2023-11-18T04:26:37;9.38;;;5.03;;
5195;SDS011;2617;51.006;12.436;2023-11-18T04:31:39;8.97;;;5.80;;
5195;SDS011;2617;51.006;12.436;2023-11-18T04:36:41;8.57;;;5.90;;
5195;SDS011;2617;51.006;12.436;2023-11-18T04:41:42;7.50;;;6.22;;
5195;SDS011;2617;51.006;12.436;2023-11-18T04:46:45;12.50;;;6.03;;
5195;SDS011;2617;51.006;12.436;2023-11-18T04:51:47;9.03;;;5.70;;
5195;SDS011;2617;51.006;12.436;2023-11-18T04:56:48;8.80;;;6.70;;
5195;SDS011;2617;51.006;12.436;2023-11-18T05:01:50;13.53;;;6.33;;
5195;SDS011;2617;51.006;12.436;2023-11-18T05:06:52;9.10;;;5.90;;
5195;SDS011;2617;51.006;12.436;2023-11-18T05:11:54;8.53;;;5.57;;
5195;SDS011;2617;51.006;12.436;2023-11-18T05:16:56;10.97;;;6.23;;
5195;SDS011;2617;51.006;12.436;2023-11-18T05:21:58;5.43;;;4.90;;
5195;SDS011;2617;51.006;12.436;2023-11-18T05:27:00;11.77;;;6.10;;
5195;SDS011;2617;51.006;12.436;2023-11-18T05:32:03;8.70;;;5.72;;
5195;SDS011;2617;51.006;12.436;2023-11-18T05:37:05;10.70;;;6.10;;
5195;SDS011;2617;51.006;12.436;2023-11-18T05:42:07;7.90;;;5.73;;
5195;SDS011;2617;51.006;12.436;2023-11-18T05:47:09;9.90;;;5.45;;
5195;SDS011;2617;51.006;12.436;2023-11-18T05:52:13;5.93;;;5.23;;
5195;SDS011;2617;51.006;12.436;2023-11-18T05:57:15;6.60;;;5.00;;
5195;SDS011;2617;51.006;12.436;2023-11-18T06:02:18;8.50;;;5.40;;
5195;SDS011;2617;51.006;12.436;2023-11-18T06:07:20;5.90;;;4.80;;
5195;SDS011;2617;51.006;12.436;2023-11-18T06:12:22;7.10;;;5.00;;
5195;SDS011;2617;51.006;12.436;2023-11-18T06:17:24;6.72;;;4.95;;
5195;SDS011;2617;51.006;12.436;2023-11-18T06:22:25;10.97;;;4.87;;
5195;SDS011;2617;51.006;12.436;2023-11-18T06:27:27;6.50;;;5.00;;
5195;SDS011;2617;51.006;12.436;2023-11-18T06:32:29;7.53;;;4.50;;
5195;SDS011;2617;51.006;12.436;2023-11-18T06:37:32;5.07;;;4.40;;
5195;SDS011;2617;51.006;12.436;2023-11-18T06:42:34;7.40;;;5.13;;
5195;SDS011;2617;51.006;12.436;2023-11-18T06:47:37;6.80;;;5.20;;
5195;SDS011;2617;51.006;12.436;2023-11-18T06:52:38;6.40;;;4.43;;
5195;SDS011;2617;51.006;12.436;2023-11-18T06:57:41;5.90;;;4.73;;
5195;SDS011;2617;51.006;12.436;2023-11-18T07:02:43;7.25;;;5.00;;
5195;SDS011;2617;51.006;12.436;2023-11-18T07:07:45;6.80;;;5.77;;
5195;SDS011;2617;51.006;12.436;2023-11-18T07:12:47;6.20;;;4.67;;
5195;SDS011;2617;51.006;12.436;2023-11-18T07:17:49;7.28;;;5.10;;
5195;SDS011;2617;51.006;12.436;2023-11-18T07:22:51;10.32;;;6.07;;
5195;SDS011;2617;51.006;12.436;2023-11-18T07:27:52;5.27;;;4.27;;
5195;SDS011;2617;51.006;12.436;2023-11-18T07:32:55;8.00;;;5.10;;
5195;SDS011;2617;51.006;12.436;2023-11-18T07:37:57;6.27;;;4.40;;
5195;SDS011;2617;51.006;12.436;2023-11-18T07:42:58;7.25;;;4.80;;
5195;SDS011;2617;51.006;12.436;2023-11-18T07:48:00;5.67;;;5.03;;
5195;SDS011;2617;51.006;12.436;2023-11-18T07:53:03;5.87;;;5.20;;
5195;SDS011;2617;51.006;12.436;2023-11-18T07:58:05;8.83;;;4.87;;
5195;SDS011;2617;51.006;12.436;2023-11-18T08:03:07;8.67;;;5.83;;
5195;SDS011;2617;51.006;12.436;2023-11-18T08:08:10;10.43;;;6.87;;
5195;SDS011;2617;51.006;12.436;2023-11-18T08:13:12;4.93;;;4.43;;
5195;SDS011;2617;51.006;12.436;2023-11-18T08:18:14;8.07;;;5.50;;
5195;SDS011;2617;51.006;12.436;2023-11-18T08:23:16;8.80;;;6.50;;
5195;SDS011;2617;51.006;12.436;2023-11-18T08:28:19;11.10;;;5.43;;
5195;SDS011;2617;51.006;12.436;2023-11-18T08:33:21;11.07;;;6.33;;
5195;SDS011;2617;51.006;12.436;2023-11-18T08:38:24;9.37;;;7.20;;
5195;SDS011;2617;51.006;12.436;2023-11-18T08:43:26;9.65;;;6.90;;
5195;SDS011;2617;51.006;12.436;2023-11-18T08:48:28;8.33;;;6.10;;
5195;SDS011;2617;51.006;12.436;2023-11-18T08:53:30;14.53;;;6.90;;
5195;SDS011;2617;51.006;12.436;2023-11-18T08:58:32;16.33;;;7.07;;
5195;SDS011;2617;51.006;12.436;2023-11-18T09:03:33;15.73;;;7.90;;
5195;SDS011;2617;51.006;12.436;2023-11-18T09:08:36;12.45;;;7.75;;
5195;SDS011;2617;51.006;12.436;2023-11-18T09:13:38;13.98;;;7.72;;
5195;SDS011;2617;51.006;12.436;2023-11-18T09:18:41;11.83;;;7.63;;
5195;SDS011;2617;51.006;12.436;2023-11-18T09:23:42;12.97;;;7.17;;
5195;SDS011;2617;51.006;12.436;2023-11-18T09:28:45;10.83;;;8.00;;
5195;SDS011;2617;51.006;12.436;2023-11-18T09:33:46;10.97;;;6.97;;
5195;SDS011;2617;51.006;12.436;2023-11-18T09:38:48;12.07;;;8.13;;
5195;SDS011;2617;51.006;12.436;2023-11-18T09:43:51;11.38;;;7.25;;
5195;SDS011;2617;51.006;12.436;2023-11-18T09:49:01;12.50;;;7.77;;
5195;SDS011;2617;51.006;12.436;2023-11-18T09:54:18;15.98;;;8.45;;
5195;SDS011;2617;51.006;12.436;2023-11-18T09:59:18;11.00;;;8.35;;
5195;SDS011;2617;51.006;12.436;2023-11-18T10:04:20;15.60;;;10.97;;
5195;SDS011;2617;51.006;12.436;2023-11-18T10:09:24;13.07;;;8.17;;
5195;SDS011;2617;51.006;12.436;2023-11-18T10:14:26;13.32;;;8.05;;
5195;SDS011;2617;51.006;12.436;2023-11-18T10:19:39;11.90;;;7.90;;
5195;SDS011;2617;51.006;12.436;2023-11-18T10:24:40;11.82;;;8.35;;
5195;SDS011;2617;51.006;12.436;2023-11-18T10:29:31;14.35;;;8.57;;
5195;SDS011;2617;51.006;12.436;2023-11-18T10:34:34;13.40;;;7.50;;
5195;SDS011;2617;51.006;12.436;2023-11-18T10:39:35;12.55;;;8.02;;
5195;SDS011;2617;51.006;12.436;2023-11-18T10:44:37;13.60;;;7.97;;
5195;SDS011;2617;51.006;12.436;2023-11-18T10:49:38;10.33;;;7.43;;
5195;SDS011;2617;51.006;12.436;2023-11-18T10:54:49;15.60;;;7.83;;
5195;SDS011;2617;51.006;12.436;2023-11-18T10:59:58;15.50;;;9.27;;
5195;SDS011;2617;51.006;12.436;2023-11-18T11:05:00;10.63;;;6.80;;
5195;SDS011;2617;51.006;12.436;2023-11-18T11:10:02;9.97;;;7.40;;
5195;SDS011;2617;51.006;12.436;2023-11-18T11:15:12;11.03;;;8.00;;
5195;SDS011;2617;51.006;12.436;2023-11-18T11:20:10;11.85;;;7.93;;
5195;SDS011;2617;51.006;12.436;2023-11-18T11:25:16;11.47;;;6.90;;
5195;SDS011;2617;51.006;12.436;2023-11-18T11:30:23;6.80;;;5.50;;
5195;SDS011;2617;51.006;12.436;2023-11-18T11:35:30;9.87;;;5.93;;
5195;SDS011;2617;51.006;12.436;2023-11-18T11:40:31;9.10;;;6.72;;
5195;SDS011;2617;51.006;12.436;2023-11-18T11:45:33;10.05;;;5.80;;
5195;SDS011;2617;51.006;12.436;2023-11-18T11:50:35;8.03;;;6.40;;
5195;SDS011;2617;51.006;12.436;2023-11-18T12:00:53;7.60;;;5.00;;
5195;SDS011;2617;51.006;12.436;2023-11-18T12:05:56;6.97;;;5.07;;
5195;SDS011;2617;51.006;12.436;2023-11-18T12:10:58;7.30;;;4.10;;
5195;SDS011;2617;51.006;12.436;2023-11-18T12:16:00;7.87;;;4.63;;
5195;SDS011;2617;51.006;12.436;2023-11-18T12:21:02;7.10;;;4.70;;
5195;SDS011;2617;51.006;12.436;2023-11-18T12:26:04;6.50;;;4.62;;
5195;SDS011;2617;51.006;12.436;2023-11-18T12:31:06;10.93;;;5.70;;
5195;SDS011;2617;51.006;12.436;2023-11-18T12:36:22;7.40;;;4.90;;
5195;SDS011;2617;51.006;12.436;2023-11-18T12:46:48;8.47;;;4.70;;
5195;SDS011;2617;51.006;12.436;2023-11-18T12:51:52;4.97;;;4.40;;
5195;SDS011;2617;51.006;12.436;2023-11-18T12:56:55;4.00;;;3.05;;
5195;SDS011;2617;51.006;12.436;2023-11-18T13:01:57;4.33;;;3.00;;
5195;SDS011;2617;51.006;12.436;2023-11-18T13:06:58;5.05;;;3.97;;
5195;SDS011;2617;51.006;12.436;2023-11-18T13:12:01;4.50;;;3.50;;
5195;SDS011;2617;51.006;12.436;2023-11-18T13:17:02;6.55;;;4.60;;
5195;SDS011;2617;51.006;12.436;2023-11-18T13:22:07;5.20;;;3.50;;
5195;SDS011;2617;51.006;12.436;2023-11-18T13:27:09;4.20;;;3.40;;
5195;SDS011;2617;51.006;12.436;2023-11-18T13:32:11;5.60;;;3.10;;
5195;SDS011;2617;51.006;12.436;2023-11-18T13:37:13;3.73;;;3.30;;
5195;SDS011;2617;51.006;12.436;2023-11-18T13:42:24;4.40;;;3.27;;
5195;SDS011;2617;51.006;12.436;2023-11-18T13:47:27;3.83;;;3.50;;
5195;SDS011;2617;51.006;12.436;2023-11-18T13:52:29;7.53;;;5.87;;
5195;SDS011;2617;51.006;12.436;2023-11-18T13:57:30;4.77;;;3.70;;
5195;SDS011;2617;51.006;12.436;2023-11-18T14:02:32;3.23;;;2.93;;
5195;SDS011;2617;51.006;12.436;2023-11-18T14:07:37;3.43;;;2.53;;
5195;SDS011;2617;51.006;12.436;2023-11-18T14:12:36;4.80;;;2.60;;
5195;SDS011;2617;51.006;12.436;2023-11-18T14:17:38;3.63;;;3.33;;
5195;SDS011;2617;51.006;12.436;2023-11-18T14:22:40;4.50;;;4.10;;
5195;SDS011;2617;51.006;12.436;2023-11-18T14:27:42;6.30;;;3.60;;
5195;SDS011;2617;51.006;12.436;2023-11-18T14:32:44;4.97;;;4.00;;
5195;SDS011;2617;51.006;12.436;2023-11-18T14:37:47;4.67;;;3.57;;
5195;SDS011;2617;51.006;12.436;2023-11-18T14:42:49;4.67;;;4.23;;
5195;SDS011;2617;51.006;12.436;2023-11-18T14:47:51;3.43;;;3.13;;
5195;SDS011;2617;51.006;12.436;2023-11-18T14:52:53;4.53;;;4.00;;
5195;SDS011;2617;51.006;12.436;2023-11-18T14:58:04;6.68;;;3.90;;
5195;SDS011;2617;51.006;12.436;2023-11-18T15:03:07;16.70;;;4.53;;
5195;SDS011;2617;51.006;12.436;2023-11-18T15:08:08;4.73;;;4.20;;
5195;SDS011;2617;51.006;12.436;2023-11-18T15:13:10;12.90;;;5.10;;
5195;SDS011;2617;51.006;12.436;2023-11-18T15:18:13;6.60;;;4.20;;
5195;SDS011;2617;51.006;12.436;2023-11-18T15:23:16;5.23;;;4.40;;
5195;SDS011;2617;51.006;12.436;2023-11-18T15:28:18;5.30;;;3.10;;
5195;SDS011;2617;51.006;12.436;2023-11-18T15:33:20;3.67;;;3.33;;
5195;SDS011;2617;51.006;12.436;2023-11-18T15:38:22;7.20;;;4.03;;
5195;SDS011;2617;51.006;12.436;2023-11-18T15:43:23;9.33;;;3.80;;
5195;SDS011;2617;51.006;12.436;2023-11-18T15:48:25;5.00;;;3.50;;
5195;SDS011;2617;51.006;12.436;2023-11-18T15:53:27;4.20;;;2.85;;
5195;SDS011;2617;51.006;12.436;2023-11-18T15:58:29;4.47;;;3.53;;
5195;SDS011;2617;51.006;12.436;2023-11-18T16:03:30;7.40;;;3.60;;
5195;SDS011;2617;51.006;12.436;2023-11-18T16:08:32;4.50;;;3.33;;
5195;SDS011;2617;51.006;12.436;2023-11-18T16:13:34;4.00;;;2.90;;
5195;SDS011;2617;51.006;12.436;2023-11-18T16:18:36;4.30;;;3.23;;
5195;SDS011;2617;51.006;12.436;2023-11-18T16:23:37;3.97;;;3.20;;
5195;SDS011;2617;51.006;12.436;2023-11-18T16:28:39;3.67;;;3.37;;
5195;SDS011;2617;51.006;12.436;2023-11-18T16:33:41;6.72;;;3.95;;
5195;SDS011;2617;51.006;12.436;2023-11-18T16:38:42;5.23;;;3.30;;
5195;SDS011;2617;51.006;12.436;2023-11-18T16:43:45;3.60;;;3.30;;
5195;SDS011;2617;51.006;12.436;2023-11-18T16:48:47;3.23;;;2.93;;
5195;SDS011;2617;51.006;12.436;2023-11-18T16:53:48;6.50;;;3.93;;
5195;SDS011;2617;51.006;12.436;2023-11-18T16:58:50;5.60;;;4.10;;
5195;SDS011;2617;51.006;12.436;2023-11-18T17:03:52;5.80;;;3.50;;
5195;SDS011;2617;51.006;12.436;2023-11-18T17:08:53;3.07;;;2.77;;
5195;SDS011;2617;51.006;12.436;2023-11-18T17:13:55;3.63;;;3.33;;
5195;SDS011;2617;51.006;12.436;2023-11-18T17:18:58;3.90;;;3.30;;
5195;SDS011;2617;51.006;12.436;2023-11-18T17:23:59;3.50;;;3.05;;
5195;SDS011;2617;51.006;12.436;2023-11-18T17:29:01;4.20;;;3.20;;
5195;SDS011;2617;51.006;12.436;2023-11-18T17:34:03;5.23;;;3.70;;
5195;SDS011;2617;51.006;12.436;2023-11-18T17:39:05;6.10;;;4.20;;
5195;SDS011;2617;51.006;12.436;2023-11-18T17:44:07;5.77;;;4.20;;
5195;SDS011;2617;51.006;12.436;2023-11-18T17:49:09;4.00;;;3.70;;
5195;SDS011;2617;51.006;12.436;2023-11-18T17:54:11;5.77;;;4.23;;
5195;SDS011;2617;51.006;12.436;2023-11-18T17:59:13;5.10;;;4.60;;
5195;SDS011;2617;51.006;12.436;2023-11-18T18:04:15;5.12;;;4.32;;
5195;SDS011;2617;51.006;12.436;2023-11-18T18:09:17;5.87;;;4.60;;
5195;SDS011;2617;51.006;12.436;2023-11-18T18:14:19;6.57;;;5.20;;
5195;SDS011;2617;51.006;12.436;2023-11-18T18:19:21;7.50;;;5.13;;
5195;SDS011;2617;51.006;12.436;2023-11-18T18:24:23;6.47;;;4.87;;
5195;SDS011;2617;51.006;12.436;2023-11-18T18:29:25;5.70;;;4.80;;
5195;SDS011;2617;51.006;12.436;2023-11-18T18:34:28;6.13;;;5.00;;
5195;SDS011;2617;51.006;12.436;2023-11-18T18:39:30;8.47;;;5.73;;
5195;SDS011;2617;51.006;12.436;2023-11-18T18:44:31;7.20;;;5.57;;
5195;SDS011;2617;51.006;12.436;2023-11-18T18:49:34;5.77;;;4.90;;
5195;SDS011;2617;51.006;12.436;2023-11-18T18:54:36;6.10;;;5.03;;
5195;SDS011;2617;51.006;12.436;2023-11-18T18:59:37;6.70;;;5.63;;
5195;SDS011;2617;51.006;12.436;2023-11-18T19:04:39;8.20;;;5.33;;
5195;SDS011;2617;51.006;12.436;2023-11-18T19:09:41;6.85;;;5.55;;
5195;SDS011;2617;51.006;12.436;2023-11-18T19:14:43;6.90;;;5.47;;
5195;SDS011;2617;51.006;12.436;2023-11-18T19:19:44;6.90;;;5.10;;
5195;SDS011;2617;51.006;12.436;2023-11-18T19:24:46;7.07;;;5.70;;
5195;SDS011;2617;51.006;12.436;2023-11-18T19:29:49;6.13;;;5.53;;
5195;SDS011;2617;51.006;12.436;2023-11-18T19:34:50;4.87;;;4.37;;
5195;SDS011;2617;51.006;12.436;2023-11-18T19:39:52;6.63;;;4.83;;
5195;SDS011;2617;51.006;12.436;2023-11-18T19:44:54;5.70;;;4.70;;
5195;SDS011;2617;51.006;12.436;2023-11-18T19:49:56;6.17;;;4.60;;
5195;SDS011;2617;51.006;12.436;2023-11-18T19:54:58;6.50;;;4.83;;
5195;SDS011;2617;51.006;12.436;2023-11-18T20:00:00;5.70;;;4.57;;
5195;SDS011;2617;51.006;12.436;2023-11-18T20:05:02;5.93;;;4.70;;
5195;SDS011;2617;51.006;12.436;2023-11-18T20:10:05;9.60;;;4.83;;
5195;SDS011;2617;51.006;12.436;2023-11-18T20:15:07;9.20;;;6.20;;
5195;SDS011;2617;51.006;12.436;2023-11-18T20:20:09;4.53;;;4.03;;
5195;SDS011;2617;51.006;12.436;2023-11-18T20:25:12;7.60;;;5.00;;
5195;SDS011;2617;51.006;12.436;2023-11-18T20:30:13;5.20;;;4.50;;
5195;SDS011;2617;51.006;12.436;2023-11-18T20:35:15;5.57;;;4.07;;
5195;SDS011;2617;51.006;12.436;2023-11-18T20:40:17;5.10;;;4.60;;
5195;SDS011;2617;51.006;12.436;2023-11-18T20:45:18;14.83;;;4.80;;
5195;SDS011;2617;51.006;12.436;2023-11-18T20:50:20;4.87;;;3.93;;
5195;SDS011;2617;51.006;12.436;2023-11-18T20:55:23;6.10;;;4.63;;
5195;SDS011;2617;51.006;12.436;2023-11-18T21:00:24;6.43;;;4.87;;
5195;SDS011;2617;51.006;12.436;2023-11-18T21:05:26;7.67;;;5.17;;
5195;SDS011;2617;51.006;12.436;2023-11-18T21:10:28;7.30;;;4.07;;
5195;SDS011;2617;51.006;12.436;2023-11-18T21:15:31;6.90;;;5.05;;
5195;SDS011;2617;51.006;12.436;2023-11-18T21:20:34;7.40;;;4.63;;
5195;SDS011;2617;51.006;12.436;2023-11-18T21:25:36;4.83;;;4.33;;
5195;SDS011;2617;51.006;12.436;2023-11-18T21:30:38;7.13;;;4.43;;
5195;SDS011;2617;51.006;12.436;2023-11-18T21:35:40;5.77;;;4.77;;
5195;SDS011;2617;51.006;12.436;2023-11-18T21:40:42;5.13;;;3.97;;
5195;SDS011;2617;51.006;12.436;2023-11-18T21:45:43;4.53;;;4.07;;
5195;SDS011;2617;51.006;12.436;2023-11-18T21:50:45;7.80;;;4.37;;
5195;SDS011;2617;51.006;12.436;2023-11-18T21:55:47;3.57;;;3.27;;
5195;SDS011;2617;51.006;12.436;2023-11-18T22:00:49;5.57;;;3.10;;
5195;SDS011;2617;51.006;12.436;2023-11-18T22:05:50;5.23;;;3.37;;
5195;SDS011;2617;51.006;12.436;2023-11-18T22:10:52;4.97;;;3.90;;
5195;SDS011;2617;51.006;12.436;2023-11-18T22:15:54;5.77;;;3.63;;
5195;SDS011;2617;51.006;12.436;2023-11-18T22:20:56;5.40;;;4.00;;
5195;SDS011;2617;51.006;12.436;2023-11-18T22:25:58;5.50;;;3.83;;
5195;SDS011;2617;51.006;12.436;2023-11-18T22:31:00;5.53;;;3.77;;
5195;SDS011;2617;51.006;12.436;2023-11-18T22:36:02;4.07;;;3.60;;
5195;SDS011;2617;51.006;12.436;2023-11-18T22:41:04;3.97;;;3.37;;
5195;SDS011;2617;51.006;12.436;2023-11-18T22:46:07;4.72;;;3.30;;
5195;SDS011;2617;51.006;12.436;2023-11-18T22:51:08;3.87;;;3.50;;
5195;SDS011;2617;51.006;12.436;2023-11-18T22:56:11;3.20;;;2.90;;
5195;SDS011;2617;51.006;12.436;2023-11-18T23:01:13;3.00;;;2.80;;
5195;SDS011;2617;51.006;12.436;2023-11-18T23:06:14;2.33;;;2.13;;
5195;SDS011;2617;51.006;12.436;2023-11-18T23:11:16;1.80;;;1.70;;
5195;SDS011;2617;51.006;12.436;2023-11-18T23:16:18;2.58;;;2.40;;
5195;SDS011;2617;51.006;12.436;2023-11-18T23:21:20;1.98;;;1.87;;
5195;SDS011;2617;51.006;12.436;2023-11-18T23:26:22;1.70;;;1.60;;
5195;SDS011;2617;51.006;12.436;2023-11-18T23:31:24;1.30;;;1.30;;
5195;SDS011;2617;51.006;12.436;2023-11-18T23:36:25;1.58;;;1.48;;
5195;SDS011;2617;51.006;12.436;2023-11-18T23:41:27;1.90;;;1.20;;
5195;SDS011;2617;51.006;12.436;2023-11-18T23:46:29;1.05;;;1.05;;
5195;SDS011;2617;51.006;12.436;2023-11-18T23:51:31;0.80;;;0.80;;
5195;SDS011;2617;51.006;12.436;2023-11-18T23:56:33;0.80;;;0.80;;
